sensor_id;sensor_type;location;lat;lon;timestamp;P1;durP1;ratioP1;P2;durP2;ratioP2
64188;SDS011;50493;50.970;10.082;2022-09-13T00:00:00;4.90;;;3.30;;
64188;SDS011;50493;50.970;10.082;2022-09-13T00:02:27;4.78;;;3.28;;
64188;SDS011;50493;50.970;10.082;2022-09-13T00:04:52;4.80;;;3.05;;
64188;SDS011;50493;50.970;10.082;2022-09-13T00:07:18;4.43;;;3.05;;
64188;SDS011;50493;50.970;10.082;2022-09-13T00:09:43;4.80;;;3.30;;
64188;SDS011;50493;50.970;10.082;2022-09-13T00:12:08;4.78;;;3.15;;
64188;SDS011;50493;50.970;10.082;2022-09-13T00:14:34;4.57;;;3.00;;
64188;SDS011;50493;50.970;10.082;2022-09-13T00:16:59;5.00;;;3.28;;
64188;SDS011;50493;50.970;10.082;2022-09-13T00:19:26;5.05;;;3.40;;
64188;SDS011;50493;50.970;10.082;2022-09-13T00:21:51;4.68;;;3.22;;
64188;SDS011;50493;50.970;10.082;2022-09-13T00:24:16;4.75;;;3.17;;
64188;SDS011;50493;50.970;10.082;2022-09-13T00:26:42;5.45;;;3.13;;
64188;SDS011;50493;50.970;10.082;2022-09-13T00:29:07;4.90;;;3.13;;
64188;SDS011;50493;50.970;10.082;2022-09-13T00:31:32;5.72;;;3.38;;
64188;SDS011;50493;50.970;10.082;2022-09-13T00:33:58;4.78;;;3.50;;
64188;SDS011;50493;50.970;10.082;2022-09-13T00:36:25;4.82;;;3.00;;
64188;SDS011;50493;50.970;10.082;2022-09-13T00:38:51;5.20;;;3.10;;
64188;SDS011;50493;50.970;10.082;2022-09-13T00:41:17;4.50;;;2.92;;
64188;SDS011;50493;50.970;10.082;2022-09-13T00:43:46;4.15;;;2.88;;
64188;SDS011;50493;50.970;10.082;2022-09-13T00:46:15;4.85;;;3.08;;
64188;SDS011;50493;50.970;10.082;2022-09-13T00:48:43;4.18;;;2.80;;
64188;SDS011;50493;50.970;10.082;2022-09-13T00:51:11;4.20;;;2.88;;
64188;SDS011;50493;50.970;10.082;2022-09-13T00:53:39;4.63;;;3.17;;
64188;SDS011;50493;50.970;10.082;2022-09-13T00:58:36;4.93;;;3.10;;
64188;SDS011;50493;50.970;10.082;2022-09-13T01:01:05;4.22;;;2.70;;
64188;SDS011;50493;50.970;10.082;2022-09-13T01:03:34;4.68;;;2.90;;
64188;SDS011;50493;50.970;10.082;2022-09-13T01:06:01;4.95;;;3.17;;
64188;SDS011;50493;50.970;10.082;2022-09-13T01:08:31;5.55;;;3.42;;
64188;SDS011;50493;50.970;10.082;2022-09-13T01:11:01;4.63;;;3.08;;
64188;SDS011;50493;50.970;10.082;2022-09-13T01:13:29;4.18;;;2.90;;
64188;SDS011;50493;50.970;10.082;2022-09-13T01:15:57;5.18;;;3.00;;
64188;SDS011;50493;50.970;10.082;2022-09-13T01:18:23;4.53;;;2.92;;
64188;SDS011;50493;50.970;10.082;2022-09-13T01:20:59;5.57;;;3.00;;
64188;SDS011;50493;50.970;10.082;2022-09-13T01:26:48;5.43;;;2.75;;
64188;SDS011;50493;50.970;10.082;2022-09-13T01:29:40;4.75;;;2.95;;
64188;SDS011;50493;50.970;10.082;2022-09-13T01:32:27;4.63;;;3.00;;
64188;SDS011;50493;50.970;10.082;2022-09-13T01:35:03;4.38;;;3.00;;
64188;SDS011;50493;50.970;10.082;2022-09-13T01:37:43;4.93;;;3.28;;
64188;SDS011;50493;50.970;10.082;2022-09-13T01:40:16;4.45;;;3.00;;
64188;SDS011;50493;50.970;10.082;2022-09-13T01:43:03;4.80;;;2.95;;
64188;SDS011;50493;50.970;10.082;2022-09-13T01:45:43;4.85;;;3.00;;
64188;SDS011;50493;50.970;10.082;2022-09-13T01:48:19;4.53;;;2.88;;
64188;SDS011;50493;50.970;10.082;2022-09-13T01:50:51;5.50;;;3.10;;
64188;SDS011;50493;50.970;10.082;2022-09-13T01:53:26;4.50;;;3.00;;
64188;SDS011;50493;50.970;10.082;2022-09-13T01:56:01;4.75;;;3.10;;
64188;SDS011;50493;50.970;10.082;2022-09-13T01:58:34;4.82;;;2.90;;
64188;SDS011;50493;50.970;10.082;2022-09-13T02:01:07;5.35;;;3.33;;
64188;SDS011;50493;50.970;10.082;2022-09-13T02:03:41;5.07;;;3.53;;
64188;SDS011;50493;50.970;10.082;2022-09-13T02:06:12;5.20;;;3.47;;
64188;SDS011;50493;50.970;10.082;2022-09-13T02:08:42;4.45;;;2.88;;
64188;SDS011;50493;50.970;10.082;2022-09-13T02:11:11;4.53;;;3.00;;
64188;SDS011;50493;50.970;10.082;2022-09-13T02:13:39;5.38;;;3.00;;
64188;SDS011;50493;50.970;10.082;2022-09-13T02:16:11;4.97;;;3.00;;
64188;SDS011;50493;50.970;10.082;2022-09-13T02:18:44;4.60;;;2.90;;
64188;SDS011;50493;50.970;10.082;2022-09-13T02:21:14;4.60;;;3.00;;
64188;SDS011;50493;50.970;10.082;2022-09-13T02:23:43;4.47;;;3.05;;
64188;SDS011;50493;50.970;10.082;2022-09-13T02:26:12;4.00;;;2.80;;
64188;SDS011;50493;50.970;10.082;2022-09-13T02:28:42;4.57;;;3.00;;
64188;SDS011;50493;50.970;10.082;2022-09-13T02:31:13;4.75;;;2.90;;
64188;SDS011;50493;50.970;10.082;2022-09-13T02:33:43;4.75;;;2.97;;
64188;SDS011;50493;50.970;10.082;2022-09-13T02:36:13;4.20;;;2.78;;
64188;SDS011;50493;50.970;10.082;2022-09-13T02:38:43;6.22;;;2.80;;
64188;SDS011;50493;50.970;10.082;2022-09-13T02:41:14;4.05;;;2.55;;
64188;SDS011;50493;50.970;10.082;2022-09-13T02:43:46;4.43;;;2.90;;
64188;SDS011;50493;50.970;10.082;2022-09-13T02:46:20;4.80;;;2.80;;
64188;SDS011;50493;50.970;10.082;2022-09-13T02:48:59;4.82;;;2.90;;
64188;SDS011;50493;50.970;10.082;2022-09-13T02:51:34;4.38;;;2.67;;
64188;SDS011;50493;50.970;10.082;2022-09-13T02:54:09;4.00;;;2.50;;
64188;SDS011;50493;50.970;10.082;2022-09-13T02:56:47;4.03;;;2.50;;
64188;SDS011;50493;50.970;10.082;2022-09-13T02:59:18;3.60;;;2.40;;
64188;SDS011;50493;50.970;10.082;2022-09-13T03:01:46;3.90;;;2.50;;
64188;SDS011;50493;50.970;10.082;2022-09-13T03:04:16;3.97;;;2.55;;
64188;SDS011;50493;50.970;10.082;2022-09-13T03:06:42;3.45;;;2.40;;
64188;SDS011;50493;50.970;10.082;2022-09-13T03:09:07;3.60;;;2.40;;
64188;SDS011;50493;50.970;10.082;2022-09-13T03:11:36;3.78;;;2.60;;
64188;SDS011;50493;50.970;10.082;2022-09-13T03:14:17;3.90;;;2.60;;
64188;SDS011;50493;50.970;10.082;2022-09-13T03:16:59;3.75;;;2.42;;
64188;SDS011;50493;50.970;10.082;2022-09-13T03:19:39;3.72;;;2.60;;
64188;SDS011;50493;50.970;10.082;2022-09-13T03:22:27;3.75;;;2.40;;
64188;SDS011;50493;50.970;10.082;2022-09-13T03:25:11;4.10;;;2.50;;
64188;SDS011;50493;50.970;10.082;2022-09-13T03:27:46;3.83;;;2.53;;
64188;SDS011;50493;50.970;10.082;2022-09-13T03:30:16;3.50;;;2.38;;
64188;SDS011;50493;50.970;10.082;2022-09-13T03:32:45;3.63;;;2.33;;
64188;SDS011;50493;50.970;10.082;2022-09-13T03:35:17;3.67;;;2.38;;
64188;SDS011;50493;50.970;10.082;2022-09-13T03:37:51;3.42;;;2.08;;
64188;SDS011;50493;50.970;10.082;2022-09-13T03:40:24;3.58;;;2.40;;
64188;SDS011;50493;50.970;10.082;2022-09-13T03:42:59;4.05;;;2.53;;
64188;SDS011;50493;50.970;10.082;2022-09-13T03:45:29;4.03;;;2.47;;
64188;SDS011;50493;50.970;10.082;2022-09-13T03:47:59;3.30;;;2.20;;
64188;SDS011;50493;50.970;10.082;2022-09-13T03:50:26;3.70;;;2.28;;
64188;SDS011;50493;50.970;10.082;2022-09-13T03:52:54;3.50;;;2.30;;
64188;SDS011;50493;50.970;10.082;2022-09-13T03:55:23;4.30;;;2.53;;
64188;SDS011;50493;50.970;10.082;2022-09-13T03:57:49;3.80;;;2.45;;
64188;SDS011;50493;50.970;10.082;2022-09-13T04:00:15;3.38;;;2.40;;
64188;SDS011;50493;50.970;10.082;2022-09-13T04:02:42;3.60;;;2.30;;
64188;SDS011;50493;50.970;10.082;2022-09-13T04:05:09;4.00;;;2.72;;
64188;SDS011;50493;50.970;10.082;2022-09-13T04:07:34;4.55;;;2.67;;
64188;SDS011;50493;50.970;10.082;2022-09-13T04:10:00;3.80;;;2.50;;
64188;SDS011;50493;50.970;10.082;2022-09-13T04:12:25;4.18;;;2.60;;
64188;SDS011;50493;50.970;10.082;2022-09-13T04:14:52;4.28;;;2.65;;
64188;SDS011;50493;50.970;10.082;2022-09-13T04:17:17;4.15;;;2.60;;
64188;SDS011;50493;50.970;10.082;2022-09-13T04:19:43;3.92;;;2.50;;
64188;SDS011;50493;50.970;10.082;2022-09-13T04:22:12;4.57;;;2.70;;
64188;SDS011;50493;50.970;10.082;2022-09-13T04:24:38;4.00;;;2.60;;
64188;SDS011;50493;50.970;10.082;2022-09-13T04:27:04;4.75;;;2.50;;
64188;SDS011;50493;50.970;10.082;2022-09-13T04:29:29;4.47;;;2.97;;
64188;SDS011;50493;50.970;10.082;2022-09-13T04:31:57;4.10;;;2.47;;
64188;SDS011;50493;50.970;10.082;2022-09-13T04:34:22;4.00;;;2.72;;
64188;SDS011;50493;50.970;10.082;2022-09-13T04:36:48;4.55;;;2.83;;
64188;SDS011;50493;50.970;10.082;2022-09-13T04:39:16;3.70;;;2.47;;
64188;SDS011;50493;50.970;10.082;2022-09-13T04:41:41;3.95;;;2.70;;
64188;SDS011;50493;50.970;10.082;2022-09-13T04:44:10;3.95;;;2.58;;
64188;SDS011;50493;50.970;10.082;2022-09-13T04:46:35;4.05;;;2.58;;
64188;SDS011;50493;50.970;10.082;2022-09-13T04:49:01;4.20;;;2.60;;
64188;SDS011;50493;50.970;10.082;2022-09-13T04:51:27;4.45;;;2.72;;
64188;SDS011;50493;50.970;10.082;2022-09-13T04:53:53;4.18;;;2.60;;
64188;SDS011;50493;50.970;10.082;2022-09-13T04:56:21;3.92;;;2.50;;
64188;SDS011;50493;50.970;10.082;2022-09-13T04:58:47;4.68;;;2.80;;
64188;SDS011;50493;50.970;10.082;2022-09-13T05:01:12;4.53;;;2.70;;
64188;SDS011;50493;50.970;10.082;2022-09-13T05:03:38;3.85;;;2.72;;
64188;SDS011;50493;50.970;10.082;2022-09-13T05:06:04;4.13;;;2.80;;
64188;SDS011;50493;50.970;10.082;2022-09-13T05:08:31;5.72;;;3.08;;
64188;SDS011;50493;50.970;10.082;2022-09-13T05:10:57;4.93;;;2.83;;
64188;SDS011;50493;50.970;10.082;2022-09-13T05:13:24;4.95;;;2.80;;
64188;SDS011;50493;50.970;10.082;2022-09-13T05:15:53;8.73;;;4.72;;
64188;SDS011;50493;50.970;10.082;2022-09-13T05:18:19;8.05;;;4.32;;
64188;SDS011;50493;50.970;10.082;2022-09-13T05:20:44;7.97;;;4.28;;
64188;SDS011;50493;50.970;10.082;2022-09-13T05:23:10;6.40;;;3.72;;
64188;SDS011;50493;50.970;10.082;2022-09-13T05:25:35;6.10;;;3.72;;
64188;SDS011;50493;50.970;10.082;2022-09-13T05:28:00;6.78;;;3.95;;
64188;SDS011;50493;50.970;10.082;2022-09-13T05:30:27;6.45;;;3.92;;
64188;SDS011;50493;50.970;10.082;2022-09-13T05:32:53;6.32;;;3.80;;
64188;SDS011;50493;50.970;10.082;2022-09-13T05:35:19;7.03;;;3.70;;
64188;SDS011;50493;50.970;10.082;2022-09-13T05:37:44;5.85;;;3.75;;
64188;SDS011;50493;50.970;10.082;2022-09-13T05:40:09;6.72;;;3.72;;
64188;SDS011;50493;50.970;10.082;2022-09-13T05:42:35;6.72;;;3.60;;
64188;SDS011;50493;50.970;10.082;2022-09-13T05:45:00;6.43;;;3.75;;
64188;SDS011;50493;50.970;10.082;2022-09-13T05:47:27;7.97;;;3.72;;
64188;SDS011;50493;50.970;10.082;2022-09-13T05:49:52;6.00;;;3.70;;
64188;SDS011;50493;50.970;10.082;2022-09-13T05:52:17;8.35;;;3.78;;
64188;SDS011;50493;50.970;10.082;2022-09-13T05:54:43;6.03;;;4.07;;
64188;SDS011;50493;50.970;10.082;2022-09-13T05:57:08;10.27;;;5.43;;
64188;SDS011;50493;50.970;10.082;2022-09-13T05:59:33;7.05;;;3.95;;
64188;SDS011;50493;50.970;10.082;2022-09-13T06:01:59;6.32;;;3.90;;
64188;SDS011;50493;50.970;10.082;2022-09-13T06:04:25;7.53;;;3.63;;
64188;SDS011;50493;50.970;10.082;2022-09-13T06:06:51;8.15;;;4.22;;
64188;SDS011;50493;50.970;10.082;2022-09-13T06:09:16;6.10;;;4.00;;
64188;SDS011;50493;50.970;10.082;2022-09-13T06:11:42;6.55;;;3.55;;
64188;SDS011;50493;50.970;10.082;2022-09-13T06:14:08;6.35;;;3.97;;
64188;SDS011;50493;50.970;10.082;2022-09-13T06:16:33;5.65;;;3.65;;
64188;SDS011;50493;50.970;10.082;2022-09-13T06:18:59;6.82;;;3.67;;
64188;SDS011;50493;50.970;10.082;2022-09-13T06:21:26;6.18;;;3.80;;
64188;SDS011;50493;50.970;10.082;2022-09-13T06:23:52;7.20;;;3.60;;
64188;SDS011;50493;50.970;10.082;2022-09-13T06:26:19;6.15;;;3.75;;
64188;SDS011;50493;50.970;10.082;2022-09-13T06:28:46;10.60;;;5.47;;
64188;SDS011;50493;50.970;10.082;2022-09-13T06:31:13;11.40;;;6.00;;
64188;SDS011;50493;50.970;10.082;2022-09-13T06:33:40;10.65;;;6.10;;
64188;SDS011;50493;50.970;10.082;2022-09-13T06:36:07;8.90;;;5.55;;
64188;SDS011;50493;50.970;10.082;2022-09-13T06:38:34;10.20;;;5.45;;
64188;SDS011;50493;50.970;10.082;2022-09-13T06:41:00;6.40;;;4.00;;
64188;SDS011;50493;50.970;10.082;2022-09-13T06:43:28;5.97;;;3.75;;
64188;SDS011;50493;50.970;10.082;2022-09-13T06:45:53;7.68;;;4.50;;
64188;SDS011;50493;50.970;10.082;2022-09-13T06:48:23;10.55;;;5.90;;
64188;SDS011;50493;50.970;10.082;2022-09-13T06:50:48;6.38;;;3.83;;
64188;SDS011;50493;50.970;10.082;2022-09-13T06:53:14;6.22;;;3.42;;
64188;SDS011;50493;50.970;10.082;2022-09-13T06:55:40;6.25;;;3.40;;
64188;SDS011;50493;50.970;10.082;2022-09-13T06:58:06;11.27;;;6.53;;
64188;SDS011;50493;50.970;10.082;2022-09-13T07:00:31;11.15;;;5.75;;
64188;SDS011;50493;50.970;10.082;2022-09-13T07:02:56;5.57;;;4.00;;
64188;SDS011;50493;50.970;10.082;2022-09-13T07:05:22;5.97;;;3.80;;
64188;SDS011;50493;50.970;10.082;2022-09-13T07:07:47;6.43;;;3.80;;
64188;SDS011;50493;50.970;10.082;2022-09-13T07:10:13;7.18;;;3.85;;
64188;SDS011;50493;50.970;10.082;2022-09-13T07:12:40;6.22;;;4.03;;
64188;SDS011;50493;50.970;10.082;2022-09-13T07:15:06;6.22;;;3.67;;
64188;SDS011;50493;50.970;10.082;2022-09-13T07:17:32;7.00;;;3.53;;
64188;SDS011;50493;50.970;10.082;2022-09-13T07:19:57;10.57;;;6.40;;
64188;SDS011;50493;50.970;10.082;2022-09-13T07:22:23;10.73;;;7.10;;
64188;SDS011;50493;50.970;10.082;2022-09-13T07:24:51;7.15;;;3.97;;
64188;SDS011;50493;50.970;10.082;2022-09-13T07:27:17;12.30;;;7.00;;
64188;SDS011;50493;50.970;10.082;2022-09-13T07:29:43;8.73;;;5.05;;
64188;SDS011;50493;50.970;10.082;2022-09-13T07:32:09;7.30;;;4.50;;
64188;SDS011;50493;50.970;10.082;2022-09-13T07:34:34;6.32;;;4.05;;
64188;SDS011;50493;50.970;10.082;2022-09-13T07:36:59;4.47;;;3.08;;
64188;SDS011;50493;50.970;10.082;2022-09-13T07:39:25;5.53;;;3.50;;
64188;SDS011;50493;50.970;10.082;2022-09-13T07:41:50;9.02;;;4.97;;
64188;SDS011;50493;50.970;10.082;2022-09-13T07:44:17;6.53;;;3.50;;
64188;SDS011;50493;50.970;10.082;2022-09-13T07:46:44;5.18;;;3.35;;
64188;SDS011;50493;50.970;10.082;2022-09-13T07:49:10;5.45;;;3.65;;
64188;SDS011;50493;50.970;10.082;2022-09-13T07:51:37;5.45;;;3.72;;
64188;SDS011;50493;50.970;10.082;2022-09-13T07:54:04;11.85;;;7.20;;
64188;SDS011;50493;50.970;10.082;2022-09-13T07:56:31;5.03;;;3.50;;
64188;SDS011;50493;50.970;10.082;2022-09-13T07:58:57;5.90;;;3.60;;
64188;SDS011;50493;50.970;10.082;2022-09-13T08:01:25;5.40;;;3.33;;
64188;SDS011;50493;50.970;10.082;2022-09-13T08:03:53;9.05;;;5.60;;
64188;SDS011;50493;50.970;10.082;2022-09-13T08:06:20;5.72;;;3.80;;
64188;SDS011;50493;50.970;10.082;2022-09-13T08:08:46;6.68;;;3.85;;
64188;SDS011;50493;50.970;10.082;2022-09-13T08:11:13;6.78;;;3.92;;
64188;SDS011;50493;50.970;10.082;2022-09-13T08:13:41;7.97;;;5.47;;
64188;SDS011;50493;50.970;10.082;2022-09-13T08:16:07;7.28;;;4.63;;
64188;SDS011;50493;50.970;10.082;2022-09-13T08:18:32;8.13;;;4.93;;
64188;SDS011;50493;50.970;10.082;2022-09-13T08:20:59;6.13;;;3.47;;
64188;SDS011;50493;50.970;10.082;2022-09-13T08:23:25;5.43;;;3.60;;
64188;SDS011;50493;50.970;10.082;2022-09-13T08:25:52;5.75;;;3.80;;
64188;SDS011;50493;50.970;10.082;2022-09-13T08:28:18;6.45;;;3.75;;
64188;SDS011;50493;50.970;10.082;2022-09-13T08:30:48;6.10;;;3.92;;
64188;SDS011;50493;50.970;10.082;2022-09-13T08:33:13;10.38;;;6.18;;
64188;SDS011;50493;50.970;10.082;2022-09-13T08:35:39;10.20;;;6.70;;
64188;SDS011;50493;50.970;10.082;2022-09-13T08:38:06;5.50;;;3.72;;
64188;SDS011;50493;50.970;10.082;2022-09-13T08:40:32;10.80;;;6.78;;
64188;SDS011;50493;50.970;10.082;2022-09-13T08:43:04;5.55;;;3.70;;
64188;SDS011;50493;50.970;10.082;2022-09-13T08:45:39;10.45;;;6.35;;
64188;SDS011;50493;50.970;10.082;2022-09-13T08:48:08;8.05;;;4.13;;
64188;SDS011;50493;50.970;10.082;2022-09-13T08:50:37;9.15;;;5.65;;
64188;SDS011;50493;50.970;10.082;2022-09-13T08:53:11;7.03;;;4.88;;
64188;SDS011;50493;50.970;10.082;2022-09-13T08:55:49;5.90;;;3.53;;
64188;SDS011;50493;50.970;10.082;2022-09-13T08:58:31;6.15;;;3.97;;
64188;SDS011;50493;50.970;10.082;2022-09-13T09:01:06;9.27;;;6.18;;
64188;SDS011;50493;50.970;10.082;2022-09-13T09:03:40;6.30;;;3.78;;
64188;SDS011;50493;50.970;10.082;2022-09-13T09:06:11;8.63;;;6.45;;
64188;SDS011;50493;50.970;10.082;2022-09-13T09:08:41;6.97;;;4.75;;
64188;SDS011;50493;50.970;10.082;2022-09-13T09:11:14;7.05;;;4.82;;
64188;SDS011;50493;50.970;10.082;2022-09-13T09:13:51;4.90;;;3.58;;
64188;SDS011;50493;50.970;10.082;2022-09-13T09:16:25;8.75;;;6.70;;
64188;SDS011;50493;50.970;10.082;2022-09-13T09:18:58;5.32;;;3.60;;
64188;SDS011;50493;50.970;10.082;2022-09-13T09:21:29;4.97;;;3.70;;
64188;SDS011;50493;50.970;10.082;2022-09-13T09:23:56;6.55;;;5.05;;
64188;SDS011;50493;50.970;10.082;2022-09-13T09:26:25;9.68;;;6.07;;
64188;SDS011;50493;50.970;10.082;2022-09-13T09:28:54;8.50;;;5.80;;
64188;SDS011;50493;50.970;10.082;2022-09-13T09:31:23;7.60;;;5.20;;
64188;SDS011;50493;50.970;10.082;2022-09-13T09:34:01;7.47;;;5.32;;
64188;SDS011;50493;50.970;10.082;2022-09-13T09:36:38;5.30;;;3.83;;
64188;SDS011;50493;50.970;10.082;2022-09-13T09:41:36;7.13;;;5.13;;
64188;SDS011;50493;50.970;10.082;2022-09-13T09:44:04;7.10;;;4.70;;
64188;SDS011;50493;50.970;10.082;2022-09-13T09:46:40;5.85;;;3.97;;
64188;SDS011;50493;50.970;10.082;2022-09-13T09:49:11;5.40;;;3.70;;
64188;SDS011;50493;50.970;10.082;2022-09-13T09:51:59;6.28;;;3.70;;
64188;SDS011;50493;50.970;10.082;2022-09-13T09:54:29;6.65;;;4.60;;
64188;SDS011;50493;50.970;10.082;2022-09-13T09:56:55;5.93;;;4.00;;
64188;SDS011;50493;50.970;10.082;2022-09-13T09:59:24;5.40;;;4.03;;
64188;SDS011;50493;50.970;10.082;2022-09-13T10:01:52;5.40;;;3.80;;
64188;SDS011;50493;50.970;10.082;2022-09-13T10:04:21;5.57;;;4.38;;
64188;SDS011;50493;50.970;10.082;2022-09-13T10:06:48;5.70;;;4.30;;
64188;SDS011;50493;50.970;10.082;2022-09-13T10:09:15;6.82;;;4.55;;
64188;SDS011;50493;50.970;10.082;2022-09-13T10:11:45;6.10;;;4.72;;
64188;SDS011;50493;50.970;10.082;2022-09-13T10:14:26;6.30;;;4.40;;
64188;SDS011;50493;50.970;10.082;2022-09-13T10:17:00;5.90;;;4.40;;
64188;SDS011;50493;50.970;10.082;2022-09-13T10:19:28;5.82;;;4.20;;
64188;SDS011;50493;50.970;10.082;2022-09-13T10:21:58;5.18;;;3.80;;
64188;SDS011;50493;50.970;10.082;2022-09-13T10:24:25;5.78;;;3.50;;
64188;SDS011;50493;50.970;10.082;2022-09-13T10:26:52;4.50;;;3.40;;
64188;SDS011;50493;50.970;10.082;2022-09-13T10:29:18;4.50;;;3.53;;
64188;SDS011;50493;50.970;10.082;2022-09-13T10:31:44;5.95;;;3.95;;
64188;SDS011;50493;50.970;10.082;2022-09-13T10:34:12;5.32;;;3.90;;
64188;SDS011;50493;50.970;10.082;2022-09-13T10:36:42;7.25;;;3.97;;
64188;SDS011;50493;50.970;10.082;2022-09-13T10:39:16;5.90;;;3.70;;
64188;SDS011;50493;50.970;10.082;2022-09-13T10:41:47;4.68;;;3.58;;
64188;SDS011;50493;50.970;10.082;2022-09-13T10:44:22;5.32;;;3.30;;
64188;SDS011;50493;50.970;10.082;2022-09-13T10:46:52;6.78;;;3.58;;
64188;SDS011;50493;50.970;10.082;2022-09-13T10:49:37;4.63;;;3.30;;
64188;SDS011;50493;50.970;10.082;2022-09-13T10:52:24;5.57;;;3.40;;
64188;SDS011;50493;50.970;10.082;2022-09-13T10:54:55;5.95;;;3.22;;
64188;SDS011;50493;50.970;10.082;2022-09-13T10:57:48;4.43;;;3.38;;
64188;SDS011;50493;50.970;10.082;2022-09-13T11:00:17;5.18;;;3.70;;
64188;SDS011;50493;50.970;10.082;2022-09-13T11:05:25;4.88;;;3.60;;
64188;SDS011;50493;50.970;10.082;2022-09-13T11:08:08;5.43;;;3.97;;
64188;SDS011;50493;50.970;10.082;2022-09-13T11:10:51;3.67;;;3.22;;
64188;SDS011;50493;50.970;10.082;2022-09-13T11:13:27;4.95;;;3.42;;
64188;SDS011;50493;50.970;10.082;2022-09-13T11:16:03;4.50;;;3.30;;
64188;SDS011;50493;50.970;10.082;2022-09-13T11:18:41;5.32;;;3.15;;
64188;SDS011;50493;50.970;10.082;2022-09-13T11:21:21;6.38;;;2.60;;
64188;SDS011;50493;50.970;10.082;2022-09-13T11:24:07;3.20;;;2.35;;
64188;SDS011;50493;50.970;10.082;2022-09-13T11:26:44;3.88;;;1.90;;
64188;SDS011;50493;50.970;10.082;2022-09-13T11:29:19;3.75;;;3.10;;
64188;SDS011;50493;50.970;10.082;2022-09-13T11:31:58;2.95;;;1.70;;
64188;SDS011;50493;50.970;10.082;2022-09-13T11:34:36;2.70;;;1.80;;
64188;SDS011;50493;50.970;10.082;2022-09-13T11:37:12;3.72;;;2.97;;
64188;SDS011;50493;50.970;10.082;2022-09-13T11:39:48;4.72;;;2.42;;
64188;SDS011;50493;50.970;10.082;2022-09-13T11:42:24;3.83;;;2.20;;
64188;SDS011;50493;50.970;10.082;2022-09-13T11:48:04;2.70;;;1.58;;
64188;SDS011;50493;50.970;10.082;2022-09-13T11:50:53;3.58;;;2.55;;
64188;SDS011;50493;50.970;10.082;2022-09-13T11:53:36;3.13;;;2.50;;
64188;SDS011;50493;50.970;10.082;2022-09-13T11:56:15;3.70;;;2.50;;
64188;SDS011;50493;50.970;10.082;2022-09-13T11:58:47;2.05;;;1.65;;
64188;SDS011;50493;50.970;10.082;2022-09-13T12:01:18;2.65;;;1.70;;
64188;SDS011;50493;50.970;10.082;2022-09-13T12:03:50;2.45;;;1.73;;
64188;SDS011;50493;50.970;10.082;2022-09-13T12:06:23;2.60;;;2.00;;
64188;SDS011;50493;50.970;10.082;2022-09-13T12:08:53;3.10;;;2.35;;
64188;SDS011;50493;50.970;10.082;2022-09-13T12:11:22;2.65;;;2.20;;
64188;SDS011;50493;50.970;10.082;2022-09-13T12:13:50;2.97;;;2.20;;
64188;SDS011;50493;50.970;10.082;2022-09-13T12:16:21;2.72;;;2.20;;
64188;SDS011;50493;50.970;10.082;2022-09-13T12:18:51;3.00;;;2.30;;
64188;SDS011;50493;50.970;10.082;2022-09-13T12:21:20;3.72;;;2.30;;
64188;SDS011;50493;50.970;10.082;2022-09-13T12:23:49;3.55;;;2.15;;
64188;SDS011;50493;50.970;10.082;2022-09-13T12:26:19;2.75;;;2.20;;
64188;SDS011;50493;50.970;10.082;2022-09-13T12:28:47;3.40;;;2.10;;
64188;SDS011;50493;50.970;10.082;2022-09-13T12:31:17;2.10;;;1.60;;
64188;SDS011;50493;50.970;10.082;2022-09-13T12:33:45;3.15;;;1.90;;
64188;SDS011;50493;50.970;10.082;2022-09-13T12:36:23;3.67;;;2.28;;
64188;SDS011;50493;50.970;10.082;2022-09-13T12:42:11;3.42;;;2.40;;
64188;SDS011;50493;50.970;10.082;2022-09-13T12:45:01;2.08;;;1.77;;
64188;SDS011;50493;50.970;10.082;2022-09-13T12:47:40;2.88;;;1.77;;
64188;SDS011;50493;50.970;10.082;2022-09-13T12:50:30;3.03;;;2.20;;
64188;SDS011;50493;50.970;10.082;2022-09-13T12:53:20;4.22;;;1.90;;
64188;SDS011;50493;50.970;10.082;2022-09-13T12:56:01;3.13;;;2.10;;
64188;SDS011;50493;50.970;10.082;2022-09-13T12:58:41;4.88;;;2.08;;
64188;SDS011;50493;50.970;10.082;2022-09-13T13:01:19;2.70;;;2.00;;
64188;SDS011;50493;50.970;10.082;2022-09-13T13:03:48;3.45;;;2.28;;
64188;SDS011;50493;50.970;10.082;2022-09-13T13:06:20;3.67;;;2.05;;
64188;SDS011;50493;50.970;10.082;2022-09-13T13:08:53;2.58;;;1.98;;
64188;SDS011;50493;50.970;10.082;2022-09-13T13:11:21;2.83;;;2.20;;
64188;SDS011;50493;50.970;10.082;2022-09-13T13:13:52;3.03;;;1.90;;
64188;SDS011;50493;50.970;10.082;2022-09-13T13:16:22;2.13;;;1.80;;
64188;SDS011;50493;50.970;10.082;2022-09-13T13:18:51;3.15;;;2.15;;
64188;SDS011;50493;50.970;10.082;2022-09-13T13:21:22;2.60;;;1.90;;
64188;SDS011;50493;50.970;10.082;2022-09-13T13:26:55;2.58;;;1.90;;
64188;SDS011;50493;50.970;10.082;2022-09-13T13:29:22;3.67;;;1.98;;
64188;SDS011;50493;50.970;10.082;2022-09-13T13:34:38;3.55;;;2.00;;
64188;SDS011;50493;50.970;10.082;2022-09-13T13:42:36;2.75;;;2.00;;
64188;SDS011;50493;50.970;10.082;2022-09-13T13:45:05;3.10;;;2.03;;
64188;SDS011;50493;50.970;10.082;2022-09-13T13:47:49;2.25;;;1.92;;
64188;SDS011;50493;50.970;10.082;2022-09-13T13:50:18;2.70;;;2.00;;
64188;SDS011;50493;50.970;10.082;2022-09-13T13:52:56;3.00;;;2.08;;
64188;SDS011;50493;50.970;10.082;2022-09-13T13:55:41;3.47;;;2.28;;
64188;SDS011;50493;50.970;10.082;2022-09-13T13:58:29;3.10;;;2.20;;
64188;SDS011;50493;50.970;10.082;2022-09-13T14:01:01;3.10;;;2.15;;
64188;SDS011;50493;50.970;10.082;2022-09-13T14:03:31;2.35;;;1.90;;
64188;SDS011;50493;50.970;10.082;2022-09-13T14:06:14;3.83;;;1.70;;
64188;SDS011;50493;50.970;10.082;2022-09-13T14:08:45;2.80;;;1.92;;
64188;SDS011;50493;50.970;10.082;2022-09-13T14:11:24;3.65;;;2.10;;
64188;SDS011;50493;50.970;10.082;2022-09-13T14:14:04;2.40;;;1.90;;
64188;SDS011;50493;50.970;10.082;2022-09-13T14:16:49;2.63;;;1.83;;
64188;SDS011;50493;50.970;10.082;2022-09-13T14:19:25;5.22;;;2.00;;
64188;SDS011;50493;50.970;10.082;2022-09-13T14:22:09;2.42;;;1.80;;
64188;SDS011;50493;50.970;10.082;2022-09-13T14:24:38;3.17;;;2.22;;
64188;SDS011;50493;50.970;10.082;2022-09-13T14:27:09;2.58;;;1.90;;
64188;SDS011;50493;50.970;10.082;2022-09-13T14:29:41;2.30;;;1.90;;
64188;SDS011;50493;50.970;10.082;2022-09-13T14:32:09;2.35;;;1.80;;
64188;SDS011;50493;50.970;10.082;2022-09-13T14:34:48;2.45;;;1.80;;
64188;SDS011;50493;50.970;10.082;2022-09-13T14:37:16;2.65;;;2.03;;
64188;SDS011;50493;50.970;10.082;2022-09-13T14:39:52;2.30;;;1.70;;
64188;SDS011;50493;50.970;10.082;2022-09-13T14:42:18;2.63;;;2.00;;
64188;SDS011;50493;50.970;10.082;2022-09-13T14:44:45;3.08;;;1.95;;
64188;SDS011;50493;50.970;10.082;2022-09-13T14:47:14;2.38;;;1.80;;
64188;SDS011;50493;50.970;10.082;2022-09-13T14:49:45;2.13;;;1.73;;
64188;SDS011;50493;50.970;10.082;2022-09-13T14:52:16;4.82;;;1.60;;
64188;SDS011;50493;50.970;10.082;2022-09-13T14:54:48;2.47;;;2.00;;
64188;SDS011;50493;50.970;10.082;2022-09-13T14:57:20;3.38;;;2.00;;
64188;SDS011;50493;50.970;10.082;2022-09-13T14:59:52;2.13;;;1.38;;
64188;SDS011;50493;50.970;10.082;2022-09-13T15:02:21;3.17;;;2.20;;
64188;SDS011;50493;50.970;10.082;2022-09-13T15:04:51;2.20;;;1.90;;
64188;SDS011;50493;50.970;10.082;2022-09-13T15:07:20;2.80;;;2.08;;
64188;SDS011;50493;50.970;10.082;2022-09-13T15:09:48;2.53;;;2.10;;
64188;SDS011;50493;50.970;10.082;2022-09-13T15:12:19;2.88;;;1.70;;
64188;SDS011;50493;50.970;10.082;2022-09-13T15:14:47;2.40;;;1.90;;
64188;SDS011;50493;50.970;10.082;2022-09-13T15:17:14;2.78;;;1.88;;
64188;SDS011;50493;50.970;10.082;2022-09-13T15:19:40;2.50;;;1.58;;